Time;durP1;ratioP1;P1;durP2;ratioP2;P2;SDS_P1;SDS_P2;PMS_P1;PMS_P2;Temp;Humidity;BMP_temperature;BMP_pressure;BME280_temperature;BME280_humidity;BME280_pressure;Samples;Min_cycle;Max_cycle;Signal;HPM_P1;HPM_P2
2023/01/08 00:00:25;;;;;;;1.90;1.20;;;;;;;;;;4185404;28;20510;-41
2023/01/08 00:02:26;;;;;;;4.00;1.33;;;;;;;;;;4185221;28;20122;-38
2023/01/08 00:04:28;;;;;;;1.40;1.30;;;;;;;;;;4183038;28;20443;-38
2023/01/08 00:06:30;;;;;;;2.58;1.20;;;;;;;;;;4179497;28;20057;-39
2023/01/08 00:08:31;;;;;;;2.13;1.45;;;;;;;;;;4184486;28;20049;-39
2023/01/08 00:10:34;;;;;;;2.30;1.45;;;;;;;;;;4186901;28;20459;-39
2023/01/08 00:12:35;;;;;;;1.60;1.30;;;;;;;;;;4195145;28;20056;-38
2023/01/08 00:14:37;;;;;;;1.83;1.27;;;;;;;;;;4185186;28;20106;-39
2023/01/08 00:16:38;;;;;;;1.50;1.40;;;;;;;;;;4193451;28;20194;-37
2023/01/08 00:18:40;;;;;;;1.80;1.35;;;;;;;;;;4157529;28;20053;-39
2023/01/08 00:20:41;;;;;;;2.17;1.35;;;;;;;;;;4177964;28;20091;-39
2023/01/08 00:22:43;;;;;;;1.85;1.30;;;;;;;;;;4181916;28;20056;-38
2023/01/08 00:24:44;;;;;;;2.33;1.30;;;;;;;;;;4180548;28;20500;-39
2023/01/08 00:26:46;;;;;;;2.00;1.45;;;;;;;;;;4181027;28;20057;-38
2023/01/08 00:28:47;;;;;;;1.80;1.42;;;;;;;;;;4178499;28;20087;-38
2023/01/08 00:30:48;;;;;;;1.88;1.10;;;;;;;;;;4176276;28;20061;-38
2023/01/08 00:32:50;;;;;;;1.25;1.15;;;;;;;;;;4185716;28;20419;-39
2023/01/08 00:34:53;;;;;;;1.73;1.30;;;;;;;;;;4191307;28;20053;-39
2023/01/08 00:36:54;;;;;;;1.92;1.38;;;;;;;;;;4181873;28;20122;-39
2023/01/08 00:38:57;;;;;;;2.78;1.58;;;;;;;;;;4190018;28;20103;-35
2023/01/08 00:40:58;;;;;;;1.27;1.10;;;;;;;;;;4189619;28;20053;-38
2023/01/08 00:43:00;;;;;;;2.97;1.20;;;;;;;;;;4187127;28;20053;-38
2023/01/08 00:45:01;;;;;;;5.03;1.30;;;;;;;;;;4188832;28;20067;-39
2023/01/08 00:47:02;;;;;;;1.88;1.30;;;;;;;;;;4190222;28;20110;-38
2023/01/08 00:49:04;;;;;;;2.55;1.42;;;;;;;;;;4189879;28;20485;-38
2023/01/08 00:51:06;;;;;;;1.40;1.30;;;;;;;;;;4187314;28;20397;-39
2023/01/08 00:53:08;;;;;;;1.45;1.23;;;;;;;;;;4192726;28;20048;-39
2023/01/08 00:55:09;;;;;;;2.15;1.50;;;;;;;;;;4180919;28;20060;-38
2023/01/08 00:57:10;;;;;;;2.17;1.30;;;;;;;;;;4189642;28;20057;-39
2023/01/08 00:59:12;;;;;;;2.03;1.23;;;;;;;;;;4180152;28;20049;-39
2023/01/08 01:01:14;;;;;;;2.85;1.50;;;;;;;;;;4177538;28;20463;-39
2023/01/08 01:03:15;;;;;;;1.48;1.27;;;;;;;;;;4190073;28;20106;-39
2023/01/08 01:05:16;;;;;;;2.08;1.33;;;;;;;;;;4184354;28;20433;-38
2023/01/08 01:07:18;;;;;;;3.22;1.30;;;;;;;;;;4193038;28;20052;-39
2023/01/08 01:09:19;;;;;;;2.42;1.50;;;;;;;;;;4187934;28;20106;-38
2023/01/08 01:11:23;;;;;;;1.55;1.30;;;;;;;;;;4186766;28;20121;-38
2023/01/08 01:13:25;;;;;;;1.67;1.38;;;;;;;;;;4189957;28;20049;-36
2023/01/08 01:15:26;;;;;;;2.33;1.50;;;;;;;;;;4185276;28;20057;-38
2023/01/08 01:17:27;;;;;;;1.20;1.02;;;;;;;;;;4187115;28;20115;-39
2023/01/08 01:19:29;;;;;;;2.53;1.48;;;;;;;;;;4187480;28;20511;-38
2023/01/08 01:21:31;;;;;;;2.10;1.25;;;;;;;;;;4187542;28;20063;-39
2023/01/08 01:23:32;;;;;;;1.92;1.15;;;;;;;;;;4193215;28;20106;-39
2023/01/08 01:25:36;;;;;;;1.45;1.30;;;;;;;;;;4187982;28;20067;-39
2023/01/08 01:27:38;;;;;;;1.27;0.93;;;;;;;;;;4192184;28;20052;-38
2023/01/08 01:29:39;;;;;;;1.65;1.40;;;;;;;;;;4185757;28;20083;-38
2023/01/08 01:31:40;;;;;;;1.67;1.15;;;;;;;;;;4190132;28;20455;-39
2023/01/08 01:33:42;;;;;;;2.05;1.42;;;;;;;;;;4190672;28;20049;-39
2023/01/08 01:35:43;;;;;;;2.00;1.30;;;;;;;;;;4193073;28;20492;-39
2023/01/08 01:37:44;;;;;;;1.48;1.15;;;;;;;;;;4190055;28;20048;-39
2023/01/08 01:39:46;;;;;;;1.35;0.93;;;;;;;;;;4174883;28;20049;-39
2023/01/08 01:41:47;;;;;;;2.20;1.15;;;;;;;;;;4177230;28;20063;-38
2023/01/08 01:43:48;;;;;;;1.65;1.27;;;;;;;;;;4180936;28;20457;-39
2023/01/08 01:45:50;;;;;;;1.58;1.10;;;;;;;;;;4190038;28;20044;-39
2023/01/08 01:47:54;;;;;;;1.08;0.98;;;;;;;;;;4190270;28;20496;-39
2023/01/08 01:50:01;;;;;;;2.22;1.45;;;;;;;;;;4175191;28;20053;-39
2023/01/08 01:52:03;;;;;;;1.73;1.38;;;;;;;;;;4187757;28;20055;-39
2023/01/08 01:54:07;;;;;;;1.55;1.10;;;;;;;;;;4193977;28;20055;-39
2023/01/08 01:56:08;;;;;;;1.42;1.33;;;;;;;;;;4182324;28;20063;-38
2023/01/08 01:58:13;;;;;;;1.42;1.10;;;;;;;;;;4187206;28;20500;-39
2023/01/08 02:00:14;;;;;;;2.10;1.20;;;;;;;;;;4196324;28;20098;-39
2023/01/08 02:02:16;;;;;;;1.80;1.35;;;;;;;;;;4196062;28;20052;-39
2023/01/08 02:04:17;;;;;;;1.52;1.30;;;;;;;;;;4182572;28;20060;-38
2023/01/08 02:06:30;;;;;;;1.23;1.00;;;;;;;;;;4173819;28;20072;-38
2023/01/08 02:08:41;;;;;;;2.22;1.50;;;;;;;;;;4168308;28;20057;-39
2023/01/08 02:10:55;;;;;;;1.30;1.05;;;;;;;;;;4173429;28;20057;-38
2023/01/08 02:13:03;;;;;;;2.65;1.30;;;;;;;;;;4182978;28;20126;-39
2023/01/08 02:15:11;;;;;;;1.35;1.10;;;;;;;;;;4192266;28;20110;-39
2023/01/08 02:17:15;;;;;;;2.08;1.20;;;;;;;;;;4194864;28;20476;-38
2023/01/08 02:19:34;;;;;;;2.08;1.15;;;;;;;;;;4183550;28;20086;-38
2023/01/08 02:21:49;;;;;;;2.67;1.30;;;;;;;;;;4193667;28;20045;-39
2023/01/08 02:24:02;;;;;;;1.20;1.08;;;;;;;;;;4193019;28;20052;-39
2023/01/08 02:26:14;;;;;;;2.00;1.40;;;;;;;;;;4171203;28;20048;-39
2023/01/08 02:28:16;;;;;;;2.20;1.00;;;;;;;;;;4196707;28;20056;-39
2023/01/08 02:30:17;;;;;;;1.52;1.42;;;;;;;;;;4177435;28;20381;-39
2023/01/08 02:32:24;;;;;;;2.30;1.40;;;;;;;;;;4191107;28;20061;-38
2023/01/08 02:34:26;;;;;;;1.60;1.13;;;;;;;;;;4178520;28;20049;-39
2023/01/08 02:36:27;;;;;;;1.63;1.30;;;;;;;;;;4193244;28;20469;-39
2023/01/08 02:38:28;;;;;;;1.60;1.15;;;;;;;;;;4183301;28;20057;-37
2023/01/08 02:40:41;;;;;;;1.80;1.33;;;;;;;;;;4159862;28;20476;-38
2023/01/08 02:43:03;;;;;;;1.48;0.98;;;;;;;;;;4171797;28;20048;-38
2023/01/08 02:45:13;;;;;;;1.30;1.13;;;;;;;;;;4187993;28;20062;-39
2023/01/08 02:47:23;;;;;;;2.15;1.38;;;;;;;;;;4193287;28;20056;-39
2023/01/08 02:49:27;;;;;;;;;;;;;;;;;;4192793;28;20549;-39
2023/01/08 02:51:32;;;;;;;1.55;1.30;;;;;;;;;;4191653;28;19977;-38
2023/01/08 02:53:37;;;;;;;2.10;1.30;;;;;;;;;;4194061;28;20090;-38
2023/01/08 02:55:40;;;;;;;1.52;1.15;;;;;;;;;;4180991;28;20052;-39
2023/01/08 02:57:42;;;;;;;2.00;1.48;;;;;;;;;;4185102;28;20057;-35
2023/01/08 02:59:45;;;;;;;1.70;1.33;;;;;;;;;;4184098;28;20447;-38
2023/01/08 03:01:46;;;;;;;2.10;1.58;;;;;;;;;;4189392;28;20060;-41
2023/01/08 03:03:51;;;;;;;1.42;1.15;;;;;;;;;;4191835;28;20048;-39
2023/01/08 03:06:01;;;;;;;2.03;1.25;;;;;;;;;;4191498;28;20055;-38
2023/01/08 03:08:02;;;;;;;2.65;1.35;;;;;;;;;;4190647;28;20101;-41
2023/01/08 03:10:04;;;;;;;1.48;1.02;;;;;;;;;;4187256;28;20404;-39
2023/01/08 03:12:16;;;;;;;2.30;1.60;;;;;;;;;;4190172;28;20152;-39
2023/01/08 03:14:20;;;;;;;1.48;0.98;;;;;;;;;;4180756;28;20146;-39
2023/01/08 03:16:26;;;;;;;1.83;1.40;;;;;;;;;;4184206;28;20401;-38
2023/01/08 03:18:32;;;;;;;1.67;1.27;;;;;;;;;;4183180;28;20056;-38
2023/01/08 03:20:36;;;;;;;1.58;1.38;;;;;;;;;;4182507;28;20052;-38
2023/01/08 03:22:39;;;;;;;1.45;1.30;;;;;;;;;;4180514;28;20106;-38
2023/01/08 03:24:42;;;;;;;1.38;1.17;;;;;;;;;;4178815;28;20072;-39
2023/01/08 03:26:45;;;;;;;1.42;1.10;;;;;;;;;;4181689;28;20057;-38
2023/01/08 03:28:51;;;;;;;1.58;1.10;;;;;;;;;;4185268;28;20094;-40
2023/01/08 03:30:53;;;;;;;1.48;1.10;;;;;;;;;;4185142;28;20315;-39
2023/01/08 03:32:55;;;;;;;1.65;1.20;;;;;;;;;;4192256;28;20049;-39
2023/01/08 03:34:57;;;;;;;2.45;1.10;;;;;;;;;;4175737;28;20560;-40
2023/01/08 03:37:02;;;;;;;1.70;0.98;;;;;;;;;;4181466;28;20412;-40
2023/01/08 03:39:09;;;;;;;1.90;1.30;;;;;;;;;;4179569;28;20048;-42
2023/01/08 03:41:12;;;;;;;2.13;1.30;;;;;;;;;;4170898;28;20061;-39
2023/01/08 03:43:14;;;;;;;2.90;1.50;;;;;;;;;;4178159;28;20049;-40
2023/01/08 03:45:15;;;;;;;0.88;0.80;;;;;;;;;;4182016;28;20489;-39
2023/01/08 03:47:18;;;;;;;1.25;1.10;;;;;;;;;;4195553;28;20053;-40
2023/01/08 03:49:21;;;;;;;1.80;1.20;;;;;;;;;;4196531;28;20052;-40
2023/01/08 03:51:22;;;;;;;1.80;1.10;;;;;;;;;;4183096;28;20044;-40
2023/01/08 03:53:23;;;;;;;1.63;1.27;;;;;;;;;;4190288;28;20052;-40
2023/01/08 03:55:24;;;;;;;1.17;0.88;;;;;;;;;;4186762;28;20436;-40
2023/01/08 03:57:25;;;;;;;1.38;1.10;;;;;;;;;;4185206;28;20566;-40
2023/01/08 03:59:27;;;;;;;1.42;1.05;;;;;;;;;;4195480;28;20102;-40
2023/01/08 04:01:28;;;;;;;1.67;1.13;;;;;;;;;;4184219;28;20053;-42
2023/01/08 04:03:29;;;;;;;1.77;1.42;;;;;;;;;;4183747;28;20079;-40
2023/01/08 04:05:30;;;;;;;1.70;1.30;;;;;;;;;;4184071;28;20099;-40
2023/01/08 04:07:32;;;;;;;1.23;1.00;;;;;;;;;;4183112;28;20149;-40
2023/01/08 04:09:33;;;;;;;1.20;1.00;;;;;;;;;;4181959;28;20551;-39
2023/01/08 04:11:34;;;;;;;1.55;1.15;;;;;;;;;;4191825;28;20359;-40
2023/01/08 04:13:36;;;;;;;1.60;1.10;;;;;;;;;;4184719;28;20053;-40
2023/01/08 04:15:37;;;;;;;1.75;1.30;;;;;;;;;;4183669;28;20075;-39
2023/01/08 04:17:38;;;;;;;2.30;1.20;;;;;;;;;;4192916;28;20144;-38
2023/01/08 04:19:39;;;;;;;2.63;1.27;;;;;;;;;;4175963;28;20049;-40
2023/01/08 04:21:41;;;;;;;1.13;0.95;;;;;;;;;;4193159;28;20086;-40
2023/01/08 04:23:42;;;;;;;1.45;1.10;;;;;;;;;;4185177;28;20060;-41
2023/01/08 04:25:44;;;;;;;0.98;0.80;;;;;;;;;;4193572;28;20053;-40
2023/01/08 04:27:45;;;;;;;1.75;1.13;;;;;;;;;;4190207;28;20397;-39
2023/01/08 04:29:47;;;;;;;1.40;0.93;;;;;;;;;;4187727;28;20106;-40
2023/01/08 04:31:48;;;;;;;1.30;1.08;;;;;;;;;;4181834;28;20118;-40
2023/01/08 04:33:49;;;;;;;1.80;1.23;;;;;;;;;;4180977;28;20049;-40
2023/01/08 04:35:51;;;;;;;1.10;1.00;;;;;;;;;;4189046;28;20109;-40
2023/01/08 04:37:52;;;;;;;1.13;1.02;;;;;;;;;;4180805;28;20057;-40
2023/01/08 04:39:53;;;;;;;1.40;1.27;;;;;;;;;;4183592;28;20056;-40
2023/01/08 04:41:54;;;;;;;1.70;1.00;;;;;;;;;;4187513;28;20457;-40
2023/01/08 04:43:56;;;;;;;2.20;1.35;;;;;;;;;;4187688;28;20052;-40
2023/01/08 04:45:58;;;;;;;1.52;1.10;;;;;;;;;;4181901;28;20061;-40
2023/01/08 04:47:59;;;;;;;1.73;1.20;;;;;;;;;;4186955;28;20056;-39
2023/01/08 04:50:01;;;;;;;1.67;1.10;;;;;;;;;;4188109;28;20420;-39
2023/01/08 04:52:02;;;;;;;1.38;1.13;;;;;;;;;;4186602;28;20553;-40
2023/01/08 04:54:03;;;;;;;2.03;1.33;;;;;;;;;;4188127;28;20099;-39
2023/01/08 04:56:09;;;;;;;1.25;1.15;;;;;;;;;;4189873;28;20060;-40
2023/01/08 04:58:10;;;;;;;1.10;1.00;;;;;;;;;;4182737;28;20123;-42
2023/01/08 05:00:12;;;;;;;1.30;1.00;;;;;;;;;;4181622;28;20500;-40
2023/01/08 05:02:14;;;;;;;1.63;1.15;;;;;;;;;;4188184;28;20056;-40
2023/01/08 05:04:15;;;;;;;1.30;1.00;;;;;;;;;;4190366;28;20053;-40
2023/01/08 05:06:17;;;;;;;2.03;1.10;;;;;;;;;;4188617;28;20117;-40
2023/01/08 05:08:18;;;;;;;1.48;1.20;;;;;;;;;;4175085;28;20106;-40
2023/01/08 05:10:19;;;;;;;1.08;0.98;;;;;;;;;;4187174;28;20061;-39
2023/01/08 05:12:21;;;;;;;1.50;1.13;;;;;;;;;;4197662;28;20056;-40
2023/01/08 05:14:22;;;;;;;1.35;1.17;;;;;;;;;;4190401;28;20056;-39
2023/01/08 05:16:24;;;;;;;1.35;0.90;;;;;;;;;;4189280;28;20052;-40
2023/01/08 05:18:25;;;;;;;1.52;1.08;;;;;;;;;;4191976;28;20057;-39
2023/01/08 05:20:27;;;;;;;0.95;0.90;;;;;;;;;;4196795;28;20052;-39
2023/01/08 05:22:28;;;;;;;1.42;1.00;;;;;;;;;;4185347;28;20162;-39
2023/01/08 05:24:30;;;;;;;1.20;1.00;;;;;;;;;;4186579;28;20117;-40
2023/01/08 05:26:31;;;;;;;1.25;1.00;;;;;;;;;;4187348;28;20049;-40
2023/01/08 05:28:33;;;;;;;1.48;1.10;;;;;;;;;;4188338;28;20080;-40
2023/01/08 05:30:35;;;;;;;1.25;1.10;;;;;;;;;;4190117;28;20057;-39
2023/01/08 05:32:37;;;;;;;1.35;0.93;;;;;;;;;;4187548;28;20121;-40
2023/01/08 05:34:38;;;;;;;1.50;1.27;;;;;;;;;;4187101;28;20411;-40
2023/01/08 05:36:39;;;;;;;1.10;0.90;;;;;;;;;;4180792;28;20455;-39
2023/01/08 05:38:40;;;;;;;1.35;1.00;;;;;;;;;;4184336;28;20412;-40
2023/01/08 05:40:42;;;;;;;1.35;1.25;;;;;;;;;;4187146;28;20055;-40
2023/01/08 05:42:43;;;;;;;1.70;1.05;;;;;;;;;;4187423;28;20110;-40
2023/01/08 05:44:44;;;;;;;1.30;1.15;;;;;;;;;;4193746;28;20075;-40
2023/01/08 05:46:46;;;;;;;1.30;1.20;;;;;;;;;;4189966;28;20107;-40
2023/01/08 05:48:47;;;;;;;1.35;1.00;;;;;;;;;;4184588;28;20048;-40
2023/01/08 05:50:49;;;;;;;1.48;1.15;;;;;;;;;;4189503;28;20067;-39
2023/01/08 05:52:50;;;;;;;1.48;1.15;;;;;;;;;;4191687;28;20048;-40
2023/01/08 05:54:51;;;;;;;1.33;1.10;;;;;;;;;;4187991;28;20378;-40
2023/01/08 05:56:53;;;;;;;1.27;1.17;;;;;;;;;;4190268;28;20102;-40
2023/01/08 05:58:54;;;;;;;1.40;1.00;;;;;;;;;;4187107;28;20098;-39
2023/01/08 06:01:11;;;;;;;1.50;1.00;;;;;;;;;;4187197;28;20049;-40
2023/01/08 06:03:12;;;;;;;1.60;1.10;;;;;;;;;;4183128;28;20053;-40
2023/01/08 06:05:14;;;;;;;1.25;1.15;;;;;;;;;;4187184;28;20056;-40
2023/01/08 06:07:15;;;;;;;1.33;0.70;;;;;;;;;;4180858;28;20099;-40
2023/01/08 06:09:17;;;;;;;2.30;1.15;;;;;;;;;;4186885;28;20061;-40
2023/01/08 06:11:18;;;;;;;1.40;1.10;;;;;;;;;;4195398;28;20117;-39
2023/01/08 06:13:19;;;;;;;1.27;1.05;;;;;;;;;;4190002;28;20053;-39
2023/01/08 06:15:21;;;;;;;1.27;0.93;;;;;;;;;;4188152;28;20052;-40
2023/01/08 06:17:22;;;;;;;1.17;1.02;;;;;;;;;;4191512;28;20056;-40
2023/01/08 06:19:23;;;;;;;1.40;1.10;;;;;;;;;;4188277;28;20119;-40
2023/01/08 06:21:25;;;;;;;1.00;0.90;;;;;;;;;;4189862;28;20087;-39
2023/01/08 06:23:26;;;;;;;1.13;0.90;;;;;;;;;;4189077;28;20436;-39
2023/01/08 06:25:28;;;;;;;1.25;0.90;;;;;;;;;;4186441;28;20053;-39
2023/01/08 06:27:29;;;;;;;1.25;0.90;;;;;;;;;;4186946;28;20052;-39
2023/01/08 06:29:30;;;;;;;1.20;0.80;;;;;;;;;;4176390;28;20432;-40
2023/01/08 06:31:32;;;;;;;1.38;1.05;;;;;;;;;;4189591;28;20048;-40
2023/01/08 06:33:33;;;;;;;1.33;0.93;;;;;;;;;;4189434;28;20061;-40
2023/01/08 06:35:34;;;;;;;1.13;1.02;;;;;;;;;;4182891;28;20162;-39
2023/01/08 06:37:36;;;;;;;1.35;0.90;;;;;;;;;;4176389;28;20547;-38
2023/01/08 06:39:37;;;;;;;1.60;1.08;;;;;;;;;;4184836;28;20056;-40
2023/01/08 06:41:39;;;;;;;1.20;0.90;;;;;;;;;;4187612;28;20052;-39
2023/01/08 06:43:40;;;;;;;1.02;0.93;;;;;;;;;;4186672;28;20049;-40
2023/01/08 06:45:41;;;;;;;1.17;0.88;;;;;;;;;;4194176;28;20053;-40
2023/01/08 06:47:42;;;;;;;1.65;1.00;;;;;;;;;;4189477;28;20056;-39
2023/01/08 06:49:44;;;;;;;1.02;0.90;;;;;;;;;;4189208;28;20412;-40
2023/01/08 06:51:46;;;;;;;1.25;1.02;;;;;;;;;;4196466;28;20087;-40
2023/01/08 06:53:47;;;;;;;2.28;1.20;;;;;;;;;;4189114;28;20057;-36
2023/01/08 06:55:54;;;;;;;1.38;1.02;;;;;;;;;;4186053;28;20103;-40
2023/01/08 06:57:57;;;;;;;1.00;0.90;;;;;;;;;;4178592;28;20083;-39
2023/01/08 06:59:58;;;;;;;1.23;1.00;;;;;;;;;;4190082;28;20044;-40
2023/01/08 07:01:59;;;;;;;1.00;0.90;;;;;;;;;;4189344;28;20080;-39
2023/01/08 07:04:00;;;;;;;1.00;0.70;;;;;;;;;;4176152;28;20057;-40
2023/01/08 07:06:01;;;;;;;1.30;1.00;;;;;;;;;;4189269;28;20108;-40
2023/01/08 07:08:03;;;;;;;0.90;0.90;;;;;;;;;;4186300;28;20060;-40
2023/01/08 07:10:05;;;;;;;1.70;1.00;;;;;;;;;;4185568;28;20052;-39
2023/01/08 07:12:10;;;;;;;1.13;0.93;;;;;;;;;;4188398;28;20052;-39
2023/01/08 07:14:11;;;;;;;1.15;0.77;;;;;;;;;;4196128;28;20037;-40
2023/01/08 07:16:14;;;;;;;0.82;0.80;;;;;;;;;;4193979;28;20053;-40
2023/01/08 07:18:15;;;;;;;0.88;0.80;;;;;;;;;;4186200;28;20054;-39
2023/01/08 07:20:16;;;;;;;1.20;0.95;;;;;;;;;;4187337;28;20500;-39
2023/01/08 07:22:19;;;;;;;1.20;0.80;;;;;;;;;;4196141;28;20071;-41
2023/01/08 07:24:20;;;;;;;0.90;0.80;;;;;;;;;;4186881;28;20106;-40
2023/01/08 07:26:21;;;;;;;1.08;0.90;;;;;;;;;;4190789;28;20106;-39
2023/01/08 07:28:22;;;;;;;1.00;0.88;;;;;;;;;;4188818;28;20049;-40
2023/01/08 07:30:23;;;;;;;1.52;1.00;;;;;;;;;;4188078;28;20079;-40
2023/01/08 07:32:25;;;;;;;1.30;0.98;;;;;;;;;;4195767;28;20110;-40
2023/01/08 07:34:26;;;;;;;0.85;0.82;;;;;;;;;;4183023;28;20049;-39
2023/01/08 07:36:27;;;;;;;0.82;0.80;;;;;;;;;;4189641;28;20049;-40
2023/01/08 07:38:29;;;;;;;0.93;0.70;;;;;;;;;;4196051;28;20102;-40
2023/01/08 07:40:30;;;;;;;1.10;0.90;;;;;;;;;;4188512;28;20052;-40
2023/01/08 07:42:32;;;;;;;1.27;1.02;;;;;;;;;;4189253;28;20121;-39
2023/01/08 07:44:33;;;;;;;1.42;1.08;;;;;;;;;;4189984;28;20485;-40
2023/01/08 07:46:35;;;;;;;1.60;0.90;;;;;;;;;;4188020;28;20057;-40
2023/01/08 07:48:36;;;;;;;0.82;0.75;;;;;;;;;;4189142;28;20057;-40
2023/01/08 07:50:39;;;;;;;1.00;0.90;;;;;;;;;;4187056;28;20048;-40
2023/01/08 07:52:40;;;;;;;1.63;0.93;;;;;;;;;;4186330;28;20052;-40
2023/01/08 07:54:42;;;;;;;1.92;1.17;;;;;;;;;;4186499;28;20434;-40
2023/01/08 07:56:43;;;;;;;1.10;0.80;;;;;;;;;;4184592;28;20064;-39
2023/01/08 07:58:44;;;;;;;1.20;1.00;;;;;;;;;;4161305;28;20109;-39
2023/01/08 08:00:45;;;;;;;1.15;1.00;;;;;;;;;;4182910;28;20496;-39
2023/01/08 08:02:47;;;;;;;1.00;0.80;;;;;;;;;;4188635;28;20061;-40
2023/01/08 08:04:48;;;;;;;0.93;0.75;;;;;;;;;;4182798;28;20049;-40
2023/01/08 08:06:50;;;;;;;1.02;0.90;;;;;;;;;;4179415;28;20053;-39
2023/01/08 08:08:52;;;;;;;1.13;0.80;;;;;;;;;;4187902;28;20082;-40
2023/01/08 08:10:53;;;;;;;1.08;0.88;;;;;;;;;;4181098;28;20098;-40
2023/01/08 08:12:54;;;;;;;1.20;0.80;;;;;;;;;;4192426;28;20099;-40
2023/01/08 08:14:55;;;;;;;1.35;0.80;;;;;;;;;;4177768;28;20051;-42
2023/01/08 08:16:56;;;;;;;0.82;0.68;;;;;;;;;;4179379;28;20469;-40
2023/01/08 08:18:58;;;;;;;1.08;0.75;;;;;;;;;;4179351;28;20057;-40
2023/01/08 08:20:59;;;;;;;0.90;0.80;;;;;;;;;;4177642;28;20057;-39
2023/01/08 08:23:01;;;;;;;1.23;0.90;;;;;;;;;;4179354;28;20057;-39
2023/01/08 08:25:03;;;;;;;0.77;0.60;;;;;;;;;;4178588;28;20056;-42
2023/01/08 08:27:04;;;;;;;1.02;0.80;;;;;;;;;;4179186;28;20107;-40
2023/01/08 08:29:05;;;;;;;1.13;0.85;;;;;;;;;;4177886;28;20080;-40
2023/01/08 08:31:06;;;;;;;1.30;1.02;;;;;;;;;;4179785;28;20516;-40
2023/01/08 08:33:07;;;;;;;1.13;0.90;;;;;;;;;;4182340;28;20103;-40
2023/01/08 08:35:09;;;;;;;1.30;0.90;;;;;;;;;;4182265;28;20057;-42
2023/01/08 08:37:10;;;;;;;0.68;0.60;;;;;;;;;;4194729;28;20094;-39
2023/01/08 08:39:11;;;;;;;1.35;0.70;;;;;;;;;;4184317;28;20053;-40
2023/01/08 08:41:12;;;;;;;0.73;0.65;;;;;;;;;;4180277;28;20110;-40
2023/01/08 08:43:13;;;;;;;1.00;0.80;;;;;;;;;;4190863;28;20094;-40
2023/01/08 08:45:15;;;;;;;1.15;0.90;;;;;;;;;;4185184;28;20477;-39
2023/01/08 08:47:16;;;;;;;1.05;0.80;;;;;;;;;;4195147;28;20052;-40
2023/01/08 08:49:18;;;;;;;0.77;0.73;;;;;;;;;;4181788;28;20053;-40
2023/01/08 08:51:19;;;;;;;0.82;0.80;;;;;;;;;;4147805;28;20062;-39
2023/01/08 08:53:20;;;;;;;0.80;0.60;;;;;;;;;;4176180;28;20130;-40
2023/01/08 08:55:22;;;;;;;1.00;0.80;;;;;;;;;;4194515;28;20049;-40
2023/01/08 08:57:24;;;;;;;0.77;0.73;;;;;;;;;;4181862;28;20056;-39
2023/01/08 08:59:25;;;;;;;0.73;0.73;;;;;;;;;;4181635;28;20496;-40
2023/01/08 09:01:26;;;;;;;0.68;0.68;;;;;;;;;;4180563;28;20052;-40
2023/01/08 09:03:29;;;;;;;1.05;0.95;;;;;;;;;;4181614;28;20052;-39
2023/01/08 09:05:34;;;;;;;0.77;0.77;;;;;;;;;;4173681;28;20599;-40
2023/01/08 09:07:35;;;;;;;0.70;0.70;;;;;;;;;;4186728;28;20048;-40
2023/01/08 09:09:37;;;;;;;0.75;0.63;;;;;;;;;;4188126;28;20523;-40
2023/01/08 09:11:38;;;;;;;1.10;0.90;;;;;;;;;;4181271;28;20119;-40
2023/01/08 09:13:40;;;;;;;1.00;0.85;;;;;;;;;;4183520;28;20053;-40
2023/01/08 09:15:41;;;;;;;1.70;1.00;;;;;;;;;;4191200;28;20048;-39
2023/01/08 09:17:42;;;;;;;0.95;0.77;;;;;;;;;;4181373;28;20424;-40
2023/01/08 09:19:44;;;;;;;0.70;0.68;;;;;;;;;;4181225;28;20497;-40
2023/01/08 09:21:45;;;;;;;0.82;0.70;;;;;;;;;;4179874;28;20114;-40
2023/01/08 09:23:47;;;;;;;1.15;0.80;;;;;;;;;;4185765;28;20386;-42
2023/01/08 09:25:48;;;;;;;0.65;0.55;;;;;;;;;;4188383;28;20567;-38
2023/01/08 09:28:07;;;;;;;1.52;1.00;;;;;;;;;;4192501;28;20057;-40
2023/01/08 09:30:09;;;;;;;0.95;0.80;;;;;;;;;;4182547;28;20061;-40
2023/01/08 09:32:11;;;;;;;0.95;0.77;;;;;;;;;;4190434;28;20516;-40
2023/01/08 09:34:12;;;;;;;1.55;0.90;;;;;;;;;;4189012;28;20052;-40
2023/01/08 09:36:14;;;;;;;0.85;0.70;;;;;;;;;;4180988;28;20501;-40
2023/01/08 09:38:15;;;;;;;0.70;0.70;;;;;;;;;;4194626;28;20097;-40
2023/01/08 09:40:17;;;;;;;0.95;0.55;;;;;;;;;;4179448;28;20520;-40
2023/01/08 09:42:20;;;;;;;0.80;0.65;;;;;;;;;;4180649;28;20053;-40
2023/01/08 09:44:29;;;;;;;1.02;0.90;;;;;;;;;;4179609;28;20484;-39
2023/01/08 09:46:30;;;;;;;0.68;0.52;;;;;;;;;;4193095;28;20064;-40
2023/01/08 09:48:35;;;;;;;0.95;0.90;;;;;;;;;;4163303;28;20119;-40
2023/01/08 09:50:37;;;;;;;0.80;0.57;;;;;;;;;;4173286;28;20504;-40
2023/01/08 09:52:38;;;;;;;0.75;0.70;;;;;;;;;;4193470;28;20061;-39
2023/01/08 09:54:40;;;;;;;1.10;0.80;;;;;;;;;;4182840;28;20095;-40
2023/01/08 09:56:42;;;;;;;0.90;0.65;;;;;;;;;;4192323;28;20057;-39
2023/01/08 09:58:52;;;;;;;0.60;0.60;;;;;;;;;;4187969;28;20060;-39
2023/01/08 10:00:53;;;;;;;0.90;0.90;;;;;;;;;;4184777;28;20075;-40
2023/01/08 10:02:55;;;;;;;1.10;0.80;;;;;;;;;;4162692;28;20061;-39
2023/01/08 10:04:59;;;;;;;0.73;0.60;;;;;;;;;;4176704;28;20578;-40
2023/01/08 10:07:14;;;;;;;0.70;0.70;;;;;;;;;;4180549;28;20060;-40
2023/01/08 10:09:16;;;;;;;0.90;0.60;;;;;;;;;;4193308;28;20118;-39
2023/01/08 10:11:18;;;;;;;0.73;0.70;;;;;;;;;;4180558;28;20057;-39
2023/01/08 10:13:19;;;;;;;0.82;0.70;;;;;;;;;;4186062;28;20095;-39
2023/01/08 10:15:20;;;;;;;0.98;0.70;;;;;;;;;;4187099;28;20412;-39
2023/01/08 10:17:29;;;;;;;0.70;0.70;;;;;;;;;;4192208;28;20507;-40
2023/01/08 10:19:30;;;;;;;0.80;0.60;;;;;;;;;;4166330;28;20049;-39
2023/01/08 10:21:37;;;;;;;1.00;0.80;;;;;;;;;;4180496;28;20515;-40
2023/01/08 10:23:51;;;;;;;0.88;0.80;;;;;;;;;;4189813;28;20052;-40
2023/01/08 10:25:57;;;;;;;0.80;0.60;;;;;;;;;;4182461;28;20589;-40
2023/01/08 10:28:00;;;;;;;0.90;0.80;;;;;;;;;;4189956;28;20511;-39
2023/01/08 10:30:05;;;;;;;0.80;0.70;;;;;;;;;;4180499;28;20103;-40
2023/01/08 10:32:26;;;;;;;0.63;0.50;;;;;;;;;;4192877;28;20114;-40
2023/01/08 10:34:38;;;;;;;1.92;0.82;;;;;;;;;;4167054;28;20064;-40
2023/01/08 10:36:40;;;;;;;1.05;0.77;;;;;;;;;;4188600;28;20075;-39
2023/01/08 10:38:47;;;;;;;0.60;0.60;;;;;;;;;;4182850;28;20114;-40
2023/01/08 10:40:48;;;;;;;0.95;0.88;;;;;;;;;;4178359;28;20057;-40
2023/01/08 10:42:51;;;;;;;0.93;0.90;;;;;;;;;;4185238;28;20542;-40
2023/01/08 10:44:59;;;;;;;1.05;0.82;;;;;;;;;;4195186;28;20052;-40
2023/01/08 10:47:01;;;;;;;1.13;0.80;;;;;;;;;;4182646;28;20103;-38
2023/01/08 10:49:04;;;;;;;0.68;0.68;;;;;;;;;;4180219;28;20053;-40
2023/01/08 10:51:17;;;;;;;0.90;0.65;;;;;;;;;;4178767;28;20507;-40
2023/01/08 10:53:27;;;;;;;1.15;0.75;;;;;;;;;;4191072;28;20052;-40
2023/01/08 10:55:37;;;;;;;0.52;0.50;;;;;;;;;;4179887;28;20053;-39
2023/01/08 10:57:54;;;;;;;0.77;0.65;;;;;;;;;;4179873;28;20057;-40
2023/01/08 10:59:55;;;;;;;0.90;0.70;;;;;;;;;;4191612;28;20067;-40
2023/01/08 11:01:57;;;;;;;0.90;0.70;;;;;;;;;;4178701;28;20061;-39
2023/01/08 11:04:03;;;;;;;1.08;0.88;;;;;;;;;;4168441;28;20049;-39
2023/01/08 11:06:26;;;;;;;0.60;0.50;;;;;;;;;;4182640;28;20393;-38
2023/01/08 11:08:27;;;;;;;0.82;0.60;;;;;;;;;;4180488;28;20090;-40
2023/01/08 11:10:29;;;;;;;0.93;0.80;;;;;;;;;;4177911;28;20634;-39
2023/01/08 11:12:35;;;;;;;0.95;0.60;;;;;;;;;;4178833;28;20140;-39
2023/01/08 11:14:38;;;;;;;0.98;0.70;;;;;;;;;;4179528;28;20048;-39
2023/01/08 11:16:40;;;;;;;1.55;0.90;;;;;;;;;;4179465;28;20106;-39
2023/01/08 11:18:48;;;;;;;0.85;0.70;;;;;;;;;;4178265;28;20389;-39
2023/01/08 11:20:51;;;;;;;0.80;0.68;;;;;;;;;;4186433;28;20052;-40
2023/01/08 11:23:06;;;;;;;0.90;0.70;;;;;;;;;;4184983;28;20102;-40
2023/01/08 11:25:12;;;;;;;1.17;0.80;;;;;;;;;;4192363;28;20057;-40
2023/01/08 11:27:27;;;;;;;0.80;0.80;;;;;;;;;;4161966;28;20452;-40
2023/01/08 11:30:11;;;;;;;0.68;0.60;;;;;;;;;;4174795;28;20106;-40
2023/01/08 11:32:17;;;;;;;0.70;0.70;;;;;;;;;;4144787;28;20061;-40
2023/01/08 11:34:28;;;;;;;1.13;0.80;;;;;;;;;;4162094;28;20123;-40
2023/01/08 11:36:33;;;;;;;0.80;0.75;;;;;;;;;;4178872;28;20056;-39
2023/01/08 11:38:34;;;;;;;1.05;0.70;;;;;;;;;;4189331;28;20063;-40
2023/01/08 11:40:39;;;;;;;1.17;0.70;;;;;;;;;;4179391;28;20053;-40
2023/01/08 11:43:04;;;;;;;1.23;0.90;;;;;;;;;;4190664;28;20048;-39
2023/01/08 11:45:19;;;;;;;0.95;0.85;;;;;;;;;;4168043;28;20493;-39
2023/01/08 11:47:42;;;;;;;1.20;0.90;;;;;;;;;;4179280;28;20075;-40
2023/01/08 11:49:56;;;;;;;0.90;0.75;;;;;;;;;;4177625;28;20052;-41
2023/01/08 11:52:00;;;;;;;0.70;0.68;;;;;;;;;;4179648;28;20057;-40
2023/01/08 11:54:20;;;;;;;0.93;0.82;;;;;;;;;;4178929;28;20080;-39
2023/01/08 11:56:49;;;;;;;1.08;0.98;;;;;;;;;;4166246;28;20102;-40
2023/01/08 11:58:51;;;;;;;1.00;0.80;;;;;;;;;;4189741;28;20052;-39
2023/01/08 12:01:14;;;;;;;1.10;0.90;;;;;;;;;;4182507;28;20060;-40
2023/01/08 12:03:36;;;;;;;1.27;0.80;;;;;;;;;;4167752;28;20092;-40
2023/01/08 12:05:49;;;;;;;1.20;1.00;;;;;;;;;;4176100;28;20075;-40
2023/01/08 12:07:59;;;;;;;0.85;0.70;;;;;;;;;;4167969;28;20095;-40
2023/01/08 12:10:11;;;;;;;0.82;0.68;;;;;;;;;;4173049;28;20053;-40
2023/01/08 12:12:25;;;;;;;0.95;0.80;;;;;;;;;;4182523;28;20063;-39
2023/01/08 12:14:48;;;;;;;0.90;0.80;;;;;;;;;;4184342;28;20048;-40
2023/01/08 12:17:32;;;;;;;0.95;0.70;;;;;;;;;;4189263;28;20053;-40
2023/01/08 12:19:55;;;;;;;1.10;0.85;;;;;;;;;;4170687;28;20515;-39
2023/01/08 12:22:08;;;;;;;0.93;0.80;;;;;;;;;;4193573;28;20052;-40